createdAt,value
2023-05-20T00:01:39.194Z,2.38
2023-05-20T00:04:09.107Z,2.20
2023-05-20T00:06:38.880Z,2.23
2023-05-20T00:09:08.501Z,2.20
2023-05-20T00:11:40.724Z,2.20
2023-05-20T00:14:10.349Z,2.13
2023-05-20T00:16:40.015Z,2.10
2023-05-20T00:19:09.708Z,2.30
2023-05-20T00:21:39.332Z,2.20
2023-05-20T00:24:09.521Z,2.20
2023-05-20T00:26:41.698Z,2.30
2023-05-20T00:29:11.264Z,2.20
2023-05-20T00:31:40.669Z,2.28
2023-05-20T00:34:10.356Z,2.20
2023-05-20T00:36:39.944Z,2.17
2023-05-20T00:39:09.730Z,2.00
2023-05-20T00:41:41.973Z,2.40
2023-05-20T00:44:11.555Z,2.35
2023-05-20T00:46:41.230Z,2.30
2023-05-20T00:49:10.846Z,2.45
2023-05-20T00:51:40.420Z,2.13
2023-05-20T00:54:10.015Z,2.25
2023-05-20T00:56:42.167Z,2.28
2023-05-20T00:59:11.819Z,2.13
2023-05-20T01:01:41.444Z,2.33
2023-05-20T01:04:11.088Z,1.90
2023-05-20T01:06:41.073Z,2.40
2023-05-20T01:09:10.882Z,2.30
2023-05-20T01:11:45.545Z,2.38
2023-05-20T01:14:15.172Z,2.30
2023-05-20T01:16:44.764Z,2.30
2023-05-20T01:19:22.197Z,2.40
2023-05-20T01:21:52.002Z,2.20
2023-05-20T01:24:24.233Z,2.25
2023-05-20T01:26:54.551Z,2.20
2023-05-20T01:29:24.127Z,2.35
2023-05-20T01:31:53.825Z,2.47
2023-05-20T01:34:23.531Z,2.40
2023-05-20T01:36:53.156Z,2.03
2023-05-20T01:39:25.430Z,2.30
2023-05-20T01:41:55.041Z,2.28
2023-05-20T01:44:24.610Z,2.30
2023-05-20T01:46:54.255Z,2.53
2023-05-20T01:49:24.037Z,2.50
2023-05-20T01:51:53.647Z,2.30
2023-05-20T01:54:25.837Z,2.40
2023-05-20T01:56:55.541Z,2.20
2023-05-20T01:59:25.160Z,2.60
2023-05-20T02:01:54.832Z,2.30
2023-05-20T02:04:24.415Z,2.35
2023-05-20T02:06:53.984Z,2.30
2023-05-20T02:09:26.306Z,2.45
2023-05-20T02:11:56.023Z,2.70
2023-05-20T02:14:25.733Z,2.38
2023-05-20T02:16:55.437Z,2.60
2023-05-20T02:19:25.611Z,2.47
2023-05-20T02:21:55.347Z,2.50
2023-05-20T02:24:27.527Z,2.30
2023-05-20T02:26:59.099Z,2.50
2023-05-20T02:29:28.719Z,2.40
2023-05-20T02:31:58.341Z,2.70
2023-05-20T02:34:30.353Z,2.70
2023-05-20T02:37:00.115Z,2.85
2023-05-20T02:39:32.313Z,2.50
2023-05-20T02:42:01.881Z,2.85
2023-05-20T02:44:31.659Z,2.35
2023-05-20T02:47:01.342Z,2.63
2023-05-20T02:49:30.963Z,2.65
2023-05-20T02:52:00.573Z,2.70
2023-05-20T02:54:32.729Z,2.50
2023-05-20T02:57:02.428Z,2.70
2023-05-20T02:59:31.992Z,2.40
2023-05-20T03:02:01.723Z,2.55
2023-05-20T03:04:31.881Z,2.67
2023-05-20T03:07:01.608Z,2.70
2023-05-20T03:09:33.839Z,2.60
2023-05-20T03:12:03.457Z,2.97
2023-05-20T03:14:33.078Z,2.67
2023-05-20T03:17:02.835Z,2.67
2023-05-20T03:19:32.427Z,2.83
2023-05-20T03:22:02.033Z,2.78
2023-05-20T03:24:34.887Z,2.75
2023-05-20T03:27:04.494Z,2.60
2023-05-20T03:29:34.173Z,2.88
2023-05-20T03:32:03.755Z,3.00
2023-05-20T03:34:33.324Z,2.92
2023-05-20T03:37:03.049Z,2.80
2023-05-20T03:39:35.223Z,2.78
2023-05-20T03:42:04.887Z,2.70
2023-05-20T03:44:34.493Z,2.90
2023-05-20T03:47:04.211Z,2.67
2023-05-20T03:49:33.896Z,2.78
2023-05-20T03:52:03.682Z,3.00
2023-05-20T03:54:36.864Z,3.10
2023-05-20T03:57:06.661Z,3.13
2023-05-20T03:59:36.724Z,3.10
2023-05-20T04:02:06.350Z,3.10
2023-05-20T04:04:36.374Z,3.10
2023-05-20T04:07:07.882Z,3.00
2023-05-20T04:09:40.925Z,2.88
2023-05-20T04:12:11.543Z,2.88
2023-05-20T04:14:42.493Z,3.10
2023-05-20T04:17:12.145Z,3.10
2023-05-20T04:19:41.749Z,3.30
2023-05-20T04:22:11.362Z,3.10
2023-05-20T04:24:43.554Z,3.13
2023-05-20T04:27:14.207Z,3.13
2023-05-20T04:29:46.206Z,3.22
2023-05-20T04:32:16.238Z,3.17
2023-05-20T04:34:45.981Z,3.33
2023-05-20T04:37:15.724Z,3.53
2023-05-20T04:39:48.465Z,3.60
2023-05-20T04:42:18.550Z,3.30
2023-05-20T04:44:48.697Z,4.10
2023-05-20T04:47:19.302Z,4.03
2023-05-20T04:49:50.492Z,3.72
2023-05-20T04:52:20.110Z,3.47
2023-05-20T04:54:52.355Z,3.50
2023-05-20T04:57:22.037Z,3.40
2023-05-20T04:59:52.626Z,3.47
2023-05-20T05:02:22.224Z,3.40
2023-05-20T05:04:51.824Z,3.45
2023-05-20T05:07:21.465Z,3.40
2023-05-20T05:09:53.627Z,3.40
2023-05-20T05:12:23.253Z,3.40
2023-05-20T05:14:52.820Z,3.50
2023-05-20T05:17:22.461Z,3.78
2023-05-20T05:19:52.041Z,3.50
2023-05-20T05:22:21.633Z,3.45
2023-05-20T05:24:55.987Z,3.42
2023-05-20T05:27:25.835Z,3.17
2023-05-20T05:29:55.463Z,3.13
2023-05-20T05:32:25.103Z,3.38
2023-05-20T05:34:54.746Z,3.33
2023-05-20T05:37:24.317Z,3.28
2023-05-20T05:39:56.515Z,3.40
2023-05-20T05:42:26.103Z,3.40
2023-05-20T05:44:55.706Z,3.25
2023-05-20T05:47:29.850Z,3.33
2023-05-20T05:49:59.593Z,3.40
2023-05-20T05:52:29.532Z,3.60
2023-05-20T05:55:01.705Z,3.35
2023-05-20T05:57:31.262Z,3.33
2023-05-20T06:00:01.193Z,3.80
2023-05-20T06:02:31.019Z,3.85
2023-05-20T06:05:00.788Z,3.33
2023-05-20T06:07:30.383Z,3.28
2023-05-20T06:10:02.583Z,3.22
2023-05-20T06:12:32.187Z,3.20
2023-05-20T06:15:01.778Z,3.58
2023-05-20T06:17:31.413Z,3.40
2023-05-20T06:20:01.046Z,3.40
2023-05-20T06:22:30.682Z,3.40
2023-05-20T06:25:03.182Z,3.42
2023-05-20T06:27:32.816Z,3.40
2023-05-20T06:30:02.432Z,3.42
2023-05-20T06:32:32.177Z,3.40
2023-05-20T06:35:01.825Z,3.38
2023-05-20T06:37:31.385Z,3.95
2023-05-20T06:40:03.619Z,4.25
2023-05-20T06:42:33.207Z,3.92
2023-05-20T06:45:02.983Z,3.72
2023-05-20T06:47:32.627Z,3.88
2023-05-20T06:50:02.199Z,3.75
2023-05-20T06:52:31.781Z,4.30
2023-05-20T06:55:04.070Z,4.28
2023-05-20T06:57:33.639Z,3.97
2023-05-20T07:00:03.818Z,3.60
2023-05-20T07:02:33.416Z,3.80
2023-05-20T07:05:03.023Z,4.00
2023-05-20T07:07:32.833Z,4.18
2023-05-20T07:10:05.907Z,4.20
2023-05-20T07:12:36.782Z,3.53
2023-05-20T07:15:07.084Z,3.97
2023-05-20T07:17:36.719Z,3.50
2023-05-20T07:20:06.874Z,4.07
2023-05-20T07:22:36.954Z,4.10
2023-05-20T07:25:10.569Z,3.90
2023-05-20T07:27:40.260Z,4.00
2023-05-20T07:30:11.483Z,3.72
2023-05-20T07:32:41.183Z,4.22
2023-05-20T07:35:11.767Z,3.90
2023-05-20T07:37:41.342Z,4.22
2023-05-20T07:40:14.961Z,4.13
2023-05-20T07:42:44.587Z,3.97
2023-05-20T07:45:14.490Z,4.10
2023-05-20T07:47:44.153Z,4.30
2023-05-20T07:50:14.358Z,4.10
2023-05-20T07:52:55.050Z,4.20
2023-05-20T07:55:27.979Z,4.40
2023-05-20T07:57:57.635Z,4.45
2023-05-20T08:00:27.560Z,4.63
2023-05-20T08:02:57.314Z,4.25
2023-05-20T08:05:27.097Z,4.68
2023-05-20T08:07:56.658Z,4.40
2023-05-20T08:10:28.917Z,4.95
2023-05-20T08:12:58.505Z,4.45
2023-05-20T08:15:28.136Z,4.25
2023-05-20T08:17:57.760Z,4.93
2023-05-20T08:20:27.467Z,4.82
2023-05-20T08:22:57.341Z,4.43
2023-05-20T08:25:30.192Z,4.70
2023-05-20T08:28:00.757Z,4.68
2023-05-20T08:30:30.843Z,4.60
2023-05-20T08:33:00.587Z,4.03
2023-05-20T08:35:30.350Z,4.50
2023-05-20T08:37:59.968Z,4.63
2023-05-20T08:40:32.204Z,4.88
2023-05-20T08:43:04.576Z,4.65
2023-05-20T08:45:35.416Z,5.10
2023-05-20T08:50:34.862Z,5.15
2023-05-20T08:53:04.794Z,5.18
2023-05-20T08:55:40.537Z,5.40
2023-05-20T08:58:10.197Z,5.00
2023-05-20T09:00:40.060Z,5.68
2023-05-20T09:03:10.269Z,5.50
2023-05-20T09:05:39.699Z,4.82
2023-05-20T09:08:09.917Z,5.35
2023-05-20T09:10:42.015Z,5.25
2023-05-20T09:13:12.574Z,5.43
2023-05-20T09:15:42.202Z,5.63
2023-05-20T09:18:12.395Z,5.20
2023-05-20T09:20:42.100Z,5.03
2023-05-20T09:23:12.414Z,5.47
2023-05-20T09:25:44.607Z,5.57
2023-05-20T09:28:14.208Z,5.45
2023-05-20T09:30:45.893Z,5.45
2023-05-20T09:33:15.743Z,5.10
2023-05-20T09:35:45.362Z,5.20
2023-05-20T09:38:14.932Z,5.43
2023-05-20T09:40:47.156Z,5.10
2023-05-20T09:43:18.267Z,5.40
2023-05-20T09:45:47.909Z,5.72
2023-05-20T09:48:18.030Z,5.47
2023-05-20T09:50:48.773Z,5.00
2023-05-20T09:53:18.655Z,5.63
2023-05-20T09:55:50.923Z,5.60
2023-05-20T09:58:20.562Z,4.88
2023-05-20T10:00:54.170Z,5.15
2023-05-20T10:03:25.200Z,4.65
2023-05-20T10:05:58.469Z,5.10
2023-05-20T10:08:42.952Z,5.97
2023-05-20T10:11:20.033Z,5.50
2023-05-20T10:13:58.495Z,4.88
2023-05-20T10:16:32.198Z,5.18
2023-05-20T10:19:03.920Z,5.20
2023-05-20T10:21:33.627Z,5.22
2023-05-20T10:24:09.171Z,5.30
2023-05-20T10:26:41.979Z,5.82
2023-05-20T10:29:18.726Z,4.97
2023-05-20T10:31:48.633Z,5.10
2023-05-20T10:34:19.079Z,5.00
2023-05-20T10:36:49.267Z,4.85
2023-05-20T10:39:19.610Z,5.10
2023-05-20T10:41:52.062Z,5.35
2023-05-20T10:44:21.692Z,5.40
2023-05-20T10:49:27.201Z,5.60
2023-05-20T10:51:57.405Z,5.50
2023-05-20T10:54:27.249Z,5.60
2023-05-20T10:56:59.414Z,5.10
2023-05-20T10:59:29.116Z,5.07
2023-05-20T11:01:58.719Z,5.57
2023-05-20T11:04:28.362Z,5.22
2023-05-20T11:06:58.883Z,4.93
2023-05-20T11:09:28.521Z,5.18
2023-05-20T11:12:00.753Z,5.65
2023-05-20T11:14:31.363Z,5.47
2023-05-20T11:17:01.133Z,5.45
2023-05-20T11:19:30.913Z,5.60
2023-05-20T11:22:01.161Z,5.07
2023-05-20T11:24:31.327Z,5.65
2023-05-20T11:27:03.825Z,5.43
2023-05-20T11:29:33.670Z,5.55
2023-05-20T11:32:03.395Z,5.70
2023-05-20T11:34:37.420Z,5.38
2023-05-20T11:37:10.213Z,5.10
2023-05-20T11:39:40.515Z,5.30
2023-05-20T11:42:12.473Z,5.72
2023-05-20T11:44:46.670Z,5.30
2023-05-20T11:47:17.730Z,5.32
2023-05-20T11:49:51.112Z,5.18
2023-05-20T11:52:21.508Z,4.90
2023-05-20T11:54:55.137Z,5.25
2023-05-20T11:57:27.343Z,5.38
2023-05-20T11:59:56.947Z,5.50
2023-05-20T12:02:26.811Z,5.10
2023-05-20T12:04:56.584Z,5.40
2023-05-20T12:07:26.996Z,5.45
2023-05-20T12:09:56.678Z,5.22
2023-05-20T12:12:28.864Z,5.10
2023-05-20T12:14:58.548Z,5.10
2023-05-20T12:17:28.197Z,5.38
2023-05-20T12:19:57.796Z,5.70
2023-05-20T12:24:57.017Z,5.22
2023-05-20T12:27:29.212Z,5.07
2023-05-20T12:29:58.825Z,5.40
2023-05-20T12:32:28.455Z,5.38
2023-05-20T12:34:58.104Z,5.75
2023-05-20T12:37:27.738Z,5.55
2023-05-20T12:39:57.374Z,5.07
2023-05-20T12:42:29.570Z,5.28
2023-05-20T12:44:59.177Z,5.40
2023-05-20T12:47:28.581Z,5.88
2023-05-20T12:49:58.222Z,5.45
2023-05-20T12:52:28.404Z,5.35
2023-05-20T12:54:58.081Z,5.40
2023-05-20T12:57:30.261Z,5.40
2023-05-20T12:59:59.846Z,5.50
2023-05-20T13:02:29.619Z,5.25
2023-05-20T13:04:59.239Z,5.82
2023-05-20T13:07:28.855Z,5.35
2023-05-20T13:09:58.567Z,5.68
2023-05-20T13:12:30.751Z,5.60
2023-05-20T13:15:00.403Z,5.10
2023-05-20T13:17:30.445Z,5.95
2023-05-20T13:20:00.301Z,6.78
2023-05-20T13:22:30.122Z,6.60
2023-05-20T13:24:59.732Z,5.85
2023-05-20T13:27:31.932Z,6.00
2023-05-20T13:30:02.049Z,5.68
2023-05-20T13:32:31.680Z,5.78
2023-05-20T13:35:01.519Z,5.68
2023-05-20T13:37:31.141Z,5.45
2023-05-20T13:40:00.799Z,5.78
2023-05-20T13:42:33.000Z,5.78
2023-05-20T13:45:02.670Z,5.85
2023-05-20T13:47:32.414Z,5.60
2023-05-20T13:50:03.324Z,5.65
2023-05-20T13:52:33.145Z,5.90
2023-05-20T13:55:02.867Z,5.50
2023-05-20T13:57:35.066Z,5.88
2023-05-20T14:00:04.824Z,5.97
2023-05-20T14:02:34.600Z,5.60
2023-05-20T14:05:04.466Z,5.78
2023-05-20T14:07:34.129Z,5.70
2023-05-20T14:10:03.801Z,6.40
2023-05-20T14:12:36.042Z,6.10
2023-05-20T14:15:05.915Z,6.25
2023-05-20T14:17:37.702Z,5.95
2023-05-20T14:20:08.911Z,6.10
2023-05-20T14:22:38.549Z,5.97
2023-05-20T14:25:09.309Z,5.72
2023-05-20T14:27:41.757Z,5.88
2023-05-20T14:30:12.877Z,5.78
2023-05-20T14:32:42.570Z,6.20
2023-05-20T14:35:12.646Z,5.80
2023-05-20T14:37:42.328Z,6.40
2023-05-20T14:40:12.915Z,6.03
2023-05-20T14:42:45.205Z,6.00
2023-05-20T14:45:14.852Z,6.13
2023-05-20T14:47:44.498Z,6.10
2023-05-20T14:50:14.475Z,5.85
2023-05-20T14:52:44.869Z,5.80
2023-05-20T14:55:14.480Z,6.20
2023-05-20T14:57:46.640Z,6.47
2023-05-20T15:00:16.806Z,6.32
2023-05-20T15:02:46.458Z,5.88
2023-05-20T15:05:16.152Z,5.60
2023-05-20T15:07:46.922Z,5.90
2023-05-20T15:12:48.654Z,6.03
2023-05-20T15:15:18.360Z,6.07
2023-05-20T15:17:48.010Z,6.00
2023-05-20T15:20:17.656Z,5.75
2023-05-20T15:22:48.330Z,5.70
2023-05-20T15:25:18.195Z,5.95
2023-05-20T15:27:50.291Z,6.43
2023-05-20T15:30:20.023Z,6.30
2023-05-20T15:32:49.776Z,6.32
2023-05-20T15:35:19.625Z,6.00
2023-05-20T15:37:49.235Z,6.40
2023-05-20T15:40:19.000Z,6.25
2023-05-20T15:42:51.650Z,6.20
2023-05-20T15:45:21.411Z,6.30
2023-05-20T15:47:51.090Z,6.10
2023-05-20T15:50:20.732Z,6.40
2023-05-20T15:52:50.440Z,6.18
2023-05-20T15:55:20.363Z,6.07
2023-05-20T15:57:52.671Z,6.43
2023-05-20T16:00:22.660Z,6.05
2023-05-20T16:02:54.224Z,6.27
2023-05-20T16:05:25.942Z,5.97
2023-05-20T16:07:57.102Z,6.30
2023-05-20T16:10:32.768Z,5.85
2023-05-20T16:13:05.202Z,6.40
2023-05-20T16:15:36.718Z,6.72
2023-05-20T16:18:06.533Z,6.22
2023-05-20T16:20:36.299Z,6.05
2023-05-20T16:23:06.045Z,6.28
2023-05-20T16:25:35.631Z,6.20
2023-05-20T16:28:07.817Z,6.60
2023-05-20T16:30:37.687Z,6.05
2023-05-20T16:33:08.246Z,6.80
2023-05-20T16:35:37.945Z,6.55
2023-05-20T16:38:07.576Z,6.30
2023-05-20T16:40:37.175Z,5.93
2023-05-20T16:43:09.399Z,6.50
2023-05-20T16:45:38.985Z,6.28
2023-05-20T16:48:08.976Z,6.65
2023-05-20T16:50:38.530Z,6.23
2023-05-20T16:53:08.133Z,6.32
2023-05-20T16:55:37.784Z,6.25
2023-05-20T16:58:09.950Z,6.55
2023-05-20T17:00:39.562Z,6.40
2023-05-20T17:03:09.263Z,6.50
2023-05-20T17:05:38.905Z,6.13
2023-05-20T17:08:08.668Z,6.50
2023-05-20T17:10:38.272Z,6.97
2023-05-20T17:13:10.442Z,6.40
2023-05-20T17:15:40.011Z,6.57
2023-05-20T17:18:09.681Z,6.78
2023-05-20T17:20:39.328Z,6.60
2023-05-20T17:23:09.008Z,6.32
2023-05-20T17:25:38.606Z,6.85
2023-05-20T17:28:10.865Z,6.50
2023-05-20T17:30:40.461Z,6.95
2023-05-20T17:33:10.174Z,6.65
2023-05-20T17:35:39.887Z,6.97
2023-05-20T17:38:09.472Z,6.63
2023-05-20T17:40:39.129Z,6.35
2023-05-20T17:43:11.292Z,7.07
2023-05-20T17:45:41.057Z,6.93
2023-05-20T17:48:11.783Z,6.97
2023-05-20T17:53:11.070Z,6.88
2023-05-20T17:55:40.858Z,6.65
2023-05-20T17:58:13.075Z,6.82
2023-05-20T18:00:43.334Z,7.03
2023-05-20T18:03:13.978Z,7.10
2023-05-20T18:05:43.954Z,15.55
2023-05-20T18:08:13.626Z,8.07
2023-05-20T18:10:43.336Z,8.45
2023-05-20T18:13:15.609Z,7.35
2023-05-20T18:15:45.202Z,6.80
2023-05-20T18:18:14.844Z,6.78
2023-05-20T18:20:44.566Z,7.10
2023-05-20T18:23:14.174Z,7.10
2023-05-20T18:25:43.788Z,7.22
2023-05-20T18:28:16.020Z,7.20
2023-05-20T18:30:45.621Z,6.72
2023-05-20T18:33:15.301Z,7.18
2023-05-20T18:35:44.963Z,7.40
2023-05-20T18:38:14.558Z,7.80
2023-05-20T18:40:44.160Z,7.28
2023-05-20T18:43:16.484Z,7.32
2023-05-20T18:45:46.323Z,7.47
2023-05-20T18:48:25.550Z,7.05
2023-05-20T18:50:56.211Z,7.50
2023-05-20T18:53:25.836Z,7.53
2023-05-20T18:55:56.202Z,7.55
2023-05-20T18:58:28.481Z,7.75
2023-05-20T19:00:58.569Z,7.50
2023-05-20T19:03:28.256Z,8.00
2023-05-20T19:05:57.989Z,7.53
2023-05-20T19:08:27.776Z,7.78
2023-05-20T19:10:57.382Z,8.07
2023-05-20T19:13:30.553Z,7.80
2023-05-20T19:16:00.797Z,8.18
2023-05-20T19:18:30.832Z,8.05
2023-05-20T19:21:00.546Z,8.40
2023-05-20T19:23:30.140Z,8.10
2023-05-20T19:25:59.732Z,8.40
2023-05-20T19:28:31.908Z,8.20
2023-05-20T19:31:01.524Z,8.10
2023-05-20T19:33:31.431Z,8.43
2023-05-20T19:36:01.045Z,8.18
2023-05-20T19:38:30.661Z,8.73
2023-05-20T19:41:00.269Z,8.10
2023-05-20T19:43:33.031Z,7.57
2023-05-20T19:46:02.739Z,8.05
2023-05-20T19:48:32.431Z,8.50
2023-05-20T19:51:02.283Z,9.27
2023-05-20T19:53:31.843Z,9.18
2023-05-20T19:56:01.472Z,9.65
2023-05-20T19:58:33.678Z,11.82
2023-05-20T20:01:04.631Z,12.75
2023-05-20T20:06:04.363Z,9.20
2023-05-20T20:08:34.345Z,9.70
2023-05-20T20:11:04.155Z,8.95
2023-05-20T20:13:36.343Z,9.52
2023-05-20T20:16:05.983Z,8.98
2023-05-20T20:18:35.725Z,9.68
2023-05-20T20:21:06.662Z,9.40
2023-05-20T20:26:07.967Z,9.10
2023-05-20T20:31:09.552Z,8.88
2023-05-20T20:33:39.165Z,9.18
2023-05-20T20:36:09.464Z,9.90
2023-05-20T20:38:39.306Z,9.73
2023-05-20T20:41:09.627Z,9.68
2023-05-20T20:43:42.687Z,10.40
2023-05-20T20:46:14.914Z,10.05
2023-05-20T20:48:46.007Z,9.98
2023-05-20T20:51:16.081Z,10.00
2023-05-20T20:53:46.616Z,10.07
2023-05-20T20:56:16.217Z,9.77
2023-05-20T20:58:48.376Z,10.73
2023-05-20T21:01:18.140Z,10.48
2023-05-20T21:03:48.601Z,10.48
2023-05-20T21:06:18.371Z,10.38
2023-05-20T21:08:48.102Z,10.63
2023-05-20T21:11:17.936Z,10.30
2023-05-20T21:13:50.498Z,10.90
2023-05-20T21:16:20.195Z,10.93
2023-05-20T21:18:49.959Z,10.75
2023-05-20T21:21:21.710Z,10.82
2023-05-20T21:23:53.026Z,11.45
2023-05-20T21:26:22.776Z,11.50
2023-05-20T21:28:55.065Z,10.85
2023-05-20T21:31:24.681Z,11.13
2023-05-20T21:33:55.017Z,11.68
2023-05-20T21:36:24.726Z,12.00
2023-05-20T21:38:57.008Z,11.30
2023-05-20T21:41:27.380Z,11.20
2023-05-20T21:43:59.550Z,11.43
2023-05-20T21:46:34.965Z,11.23
2023-05-20T21:49:04.698Z,11.02
2023-05-20T21:51:34.313Z,11.82
2023-05-20T21:54:03.945Z,11.98
2023-05-20T21:56:33.505Z,11.75
2023-05-20T21:59:05.894Z,13.52
2023-05-20T22:04:07.054Z,13.38
2023-05-20T22:06:36.966Z,12.23
2023-05-20T22:09:06.808Z,12.15
2023-05-20T22:11:37.836Z,11.75
2023-05-20T22:16:39.426Z,11.50
2023-05-20T22:19:09.062Z,11.57
2023-05-20T22:21:48.980Z,11.77
2023-05-20T22:24:19.562Z,11.57
2023-05-20T22:26:49.142Z,11.50
2023-05-20T22:29:22.018Z,11.85
2023-05-20T22:31:51.703Z,11.02
2023-05-20T22:34:21.374Z,11.77
2023-05-20T22:36:53.703Z,11.80
2023-05-20T22:39:23.327Z,11.07
2023-05-20T22:41:52.922Z,11.20
2023-05-20T22:44:25.408Z,11.57
2023-05-20T22:46:54.976Z,11.68
2023-05-20T22:49:25.240Z,11.40
2023-05-20T22:51:55.496Z,11.40
2023-05-20T22:54:25.311Z,11.43
2023-05-20T22:56:58.201Z,11.57
2023-05-20T22:59:31.288Z,11.77
2023-05-20T23:02:00.900Z,11.80
2023-05-20T23:04:30.771Z,12.10
2023-05-20T23:07:00.472Z,12.07
2023-05-20T23:09:30.089Z,12.13
2023-05-20T23:11:59.738Z,12.60
2023-05-20T23:14:31.981Z,11.77
2023-05-20T23:17:01.673Z,11.70
2023-05-20T23:19:31.481Z,11.73
2023-05-20T23:22:01.561Z,12.20
2023-05-20T23:24:31.243Z,11.57
2023-05-20T23:27:01.331Z,12.15
2023-05-20T23:29:34.004Z,11.40
2023-05-20T23:32:03.626Z,12.20
2023-05-20T23:34:34.187Z,11.43
2023-05-20T23:37:03.813Z,10.85
2023-05-20T23:39:33.443Z,12.20
2023-05-20T23:42:03.391Z,11.40
2023-05-20T23:44:35.590Z,12.05
2023-05-20T23:47:07.744Z,11.13
2023-05-20T23:49:37.449Z,11.57
2023-05-20T23:52:07.783Z,12.20
2023-05-20T23:54:37.388Z,12.00
2023-05-20T23:57:10.348Z,11.43
2023-05-20T23:59:43.188Z,11.43
